CheckWX is a tool to help pilots better visualize weather data.  It is not intended as a substitute for an official pre-flight weather briefing.

13:09:45 UTC

OMDB TAF
Dubai International Airport
Dubai, United Arab Emirates
TAF OMDB 171101Z 1712/1818 34012KT CAVOK BECMG 1715/1717 18005KT PROB30 1722/1804 3000 BR BKN008 BECMG 1806/1808 30013KT

Jun-17@
12:00 UTC

Jun-17 @ 12:00 UTC

Jun-17@
15:00 UTC

Jun-17 @ 15:00 UTC

TAF OMDB 171101Z 1712/1818 34012KT CAVOK
Wind
  • 340° at 12 KTS
Conditions
No significant weather
Cloud Levels
  • No significant clouds

Jun-17@
15:00 UTC

Jun-17 @ 15:00 UTC

Jun-18@
06:00 UTC

Jun-18 @ 06:00 UTC

BECMG 1715/1717 18005KT

Becoming

Becoming Conditions expected by Mon, Jun 17, 2019 @ 17:00 UTC

Wind
  • 180° at 5 KTS
Conditions
No significant weather
Cloud Levels
  • No significant clouds

Jun-17@
22:00 UTC

Jun-17 @ 22:00 UTC

Jun-18@
04:00 UTC

Jun-18 @ 04:00 UTC

PROB30 1722/1804 3000 BR BKN008

Probable - 30% Likelihood

Probable - 30% Likelihood during this time.

Conditions
Mist
Cloud Levels
  • Broken at 800' AGL

Jun-18@
06:00 UTC

Jun-18 @ 06:00 UTC

Jun-18@
18:00 UTC

Jun-18 @ 18:00 UTC

BECMG 1806/1808 30013KT

Becoming

Becoming Conditions expected by Tue, Jun 18, 2019 @ 08:00 UTC

Wind
  • 300° at 13 KTS
Conditions
No significant weather
Cloud Levels
  • No significant clouds